createdAt,value
2023-04-25T00:00:11.451Z,9.30
2023-04-25T00:02:43.725Z,9.20
2023-04-25T00:05:13.113Z,9.10
2023-04-25T00:07:43.131Z,9.10
2023-04-25T00:10:13.710Z,9.10
2023-04-25T00:12:42.997Z,9.20
2023-04-25T00:15:13.793Z,9.20
2023-04-25T00:17:43.501Z,9.20
2023-04-25T00:20:13.817Z,9.20
2023-04-25T00:22:42.873Z,9.20
2023-04-25T00:25:13.358Z,9.20
2023-04-25T00:27:42.924Z,9.20
2023-04-25T00:30:13.300Z,9.10
2023-04-25T00:32:42.670Z,9.10
2023-04-25T00:35:12.099Z,9.10
2023-04-25T00:37:41.155Z,9.00
2023-04-25T00:40:11.421Z,9.10
2023-04-25T00:42:42.571Z,9.10
2023-04-25T00:45:16.395Z,9.00
2023-04-25T00:47:46.416Z,9.00
2023-04-25T00:50:16.476Z,9.00
2023-04-25T00:52:46.583Z,9.00
2023-04-25T00:55:16.923Z,9.00
2023-04-25T00:57:47.910Z,9.00
2023-04-25T01:00:17.412Z,9.00
2023-04-25T01:02:47.777Z,9.00
2023-04-25T01:05:17.102Z,9.00
2023-04-25T01:07:46.130Z,8.90
2023-04-25T01:10:15.210Z,8.90
2023-04-25T01:12:44.377Z,8.90
2023-04-25T01:15:14.864Z,8.90
2023-04-25T01:17:45.301Z,8.90
2023-04-25T01:20:16.124Z,8.80
2023-04-25T01:22:47.217Z,8.80
2023-04-25T01:25:17.046Z,8.70
2023-04-25T01:27:47.308Z,8.70
2023-04-25T01:30:16.946Z,8.70
2023-04-25T01:32:46.276Z,8.60
2023-04-25T01:35:15.456Z,8.60
2023-04-25T01:37:47.164Z,8.60
2023-04-25T01:40:16.315Z,8.50
2023-04-25T01:42:46.059Z,8.50
2023-04-25T01:45:15.318Z,8.50
2023-04-25T01:47:47.965Z,8.50
2023-04-25T01:50:18.540Z,8.50
2023-04-25T01:52:49.604Z,8.40
2023-04-25T01:55:19.135Z,8.40
2023-04-25T01:57:56.847Z,8.40
2023-04-25T02:00:36.161Z,8.40
2023-04-25T02:03:06.511Z,8.30
2023-04-25T02:05:38.019Z,8.30
2023-04-25T02:08:11.653Z,8.30
2023-04-25T02:10:40.859Z,8.20
2023-04-25T02:13:17.822Z,8.20
2023-04-25T02:16:10.109Z,8.10
2023-04-25T02:18:40.933Z,8.10
2023-04-25T02:21:09.909Z,8.10
2023-04-25T02:23:40.514Z,8.00
2023-04-25T02:26:09.538Z,8.00
2023-04-25T02:28:38.624Z,8.00
2023-04-25T02:31:07.972Z,7.90
2023-04-25T02:33:36.998Z,7.90
2023-04-25T02:36:08.797Z,7.90
2023-04-25T02:38:39.383Z,7.90
2023-04-25T02:41:08.394Z,7.80
2023-04-25T02:43:37.397Z,7.80
2023-04-25T02:46:06.528Z,7.80
2023-04-25T02:48:35.554Z,7.70
2023-04-25T02:51:04.731Z,7.70
2023-04-25T02:53:33.830Z,7.70
2023-04-25T02:56:04.328Z,7.70
2023-04-25T02:58:33.443Z,7.60
2023-04-25T03:01:03.029Z,7.70
2023-04-25T03:03:32.198Z,7.60
2023-04-25T03:06:01.272Z,7.60
2023-04-25T03:08:35.446Z,7.60
2023-04-25T03:11:06.436Z,7.60
2023-04-25T03:13:35.488Z,7.60
2023-04-25T03:16:04.833Z,7.50
2023-04-25T03:18:33.891Z,7.50
2023-04-25T03:21:02.928Z,7.50
2023-04-25T03:23:33.855Z,7.50
2023-04-25T03:26:03.499Z,7.50
2023-04-25T03:28:33.985Z,7.50
2023-04-25T03:31:03.027Z,7.50
2023-04-25T03:33:32.717Z,7.50
2023-04-25T03:36:01.806Z,7.50
2023-04-25T03:38:32.028Z,7.40
2023-04-25T03:41:03.139Z,7.40
2023-04-25T03:43:46.405Z,7.40
2023-04-25T03:46:16.879Z,7.40
2023-04-25T03:48:46.065Z,7.30
2023-04-25T03:51:21.045Z,7.30
2023-04-25T03:53:50.695Z,7.30
2023-04-25T03:56:22.642Z,7.20
2023-04-25T03:59:01.192Z,7.30
2023-04-25T04:01:32.670Z,7.20
2023-04-25T04:04:02.304Z,7.20
2023-04-25T04:06:32.143Z,7.20
2023-04-25T04:09:11.890Z,7.20
2023-04-25T04:11:42.115Z,7.10
2023-04-25T04:14:12.650Z,7.10
2023-04-25T04:16:46.179Z,7.10
2023-04-25T04:19:15.819Z,7.10
2023-04-25T04:21:50.572Z,7.10
2023-04-25T04:24:19.605Z,7.20
2023-04-25T04:27:09.740Z,7.10
2023-04-25T04:29:42.920Z,7.20
2023-04-25T04:32:33.682Z,7.10
2023-04-25T04:35:03.589Z,7.20
2023-04-25T04:37:32.658Z,7.10
2023-04-25T04:40:06.935Z,7.10
2023-04-25T04:42:57.500Z,7.10
2023-04-25T04:45:43.350Z,7.10
2023-04-25T04:48:33.697Z,7.10
2023-04-25T04:51:17.845Z,7.10
2023-04-25T04:54:07.236Z,7.10
2023-04-25T04:57:05.188Z,7.10
2023-04-25T04:59:54.518Z,7.10
2023-04-25T05:02:43.523Z,7.10
2023-04-25T05:05:41.075Z,7.10
2023-04-25T05:08:32.819Z,7.10
2023-04-25T05:11:14.779Z,7.10
2023-04-25T05:14:04.806Z,7.10
2023-04-25T05:16:48.766Z,7.00
2023-04-25T05:19:43.127Z,7.00
2023-04-25T05:22:35.169Z,7.00
2023-04-25T05:25:21.765Z,7.10
2023-04-25T05:28:06.115Z,7.20
2023-04-25T05:30:55.799Z,7.20
2023-04-25T05:33:31.498Z,7.30
2023-04-25T05:36:02.108Z,7.40
2023-04-25T05:38:34.083Z,7.40
2023-04-25T05:41:24.208Z,7.40
2023-04-25T05:44:25.090Z,7.50
2023-04-25T05:47:21.454Z,7.60
2023-04-25T05:50:10.789Z,7.60
2023-04-25T05:53:04.857Z,7.70
2023-04-25T05:55:44.855Z,7.70
2023-04-25T05:58:28.546Z,7.80
2023-04-25T06:00:58.590Z,7.80
2023-04-25T06:03:28.079Z,7.80
2023-04-25T06:06:00.157Z,7.90
2023-04-25T06:08:31.053Z,7.90
2023-04-25T06:11:00.166Z,8.00
2023-04-25T06:13:29.212Z,8.10
2023-04-25T06:15:58.856Z,8.10
2023-04-25T06:18:28.735Z,8.10
2023-04-25T06:20:57.879Z,8.10
2023-04-25T06:23:27.636Z,8.10
2023-04-25T06:26:06.222Z,8.20
2023-04-25T06:28:37.034Z,8.30
2023-04-25T06:31:07.306Z,8.30
2023-04-25T06:33:36.352Z,8.40
2023-04-25T06:36:06.710Z,8.40
2023-04-25T06:38:36.502Z,8.40
2023-04-25T06:41:07.002Z,8.40
2023-04-25T06:43:38.531Z,8.40
2023-04-25T06:46:07.575Z,8.50
2023-04-25T06:48:59.591Z,8.60
2023-04-25T06:51:30.804Z,8.70
2023-04-25T06:54:00.511Z,8.80
2023-04-25T06:56:36.778Z,8.80
2023-04-25T06:59:13.966Z,8.90
2023-04-25T07:01:44.084Z,9.00
2023-04-25T07:04:26.428Z,9.00
2023-04-25T07:06:59.069Z,9.10
2023-04-25T07:09:44.886Z,9.20
2023-04-25T07:12:14.659Z,9.20
2023-04-25T07:14:43.744Z,9.30
2023-04-25T07:17:13.777Z,9.40
2023-04-25T07:19:44.716Z,9.40
2023-04-25T07:22:13.919Z,9.50
2023-04-25T07:24:48.405Z,9.50
2023-04-25T07:27:18.518Z,9.60
2023-04-25T07:30:10.894Z,9.70
2023-04-25T07:32:42.024Z,9.80
2023-04-25T07:35:12.656Z,9.90
2023-04-25T07:37:41.668Z,10.00
2023-04-25T07:40:21.836Z,10.10
2023-04-25T07:42:54.873Z,10.20
2023-04-25T07:45:34.610Z,10.30
2023-04-25T07:48:04.668Z,10.40
2023-04-25T07:50:37.336Z,10.50
2023-04-25T07:53:06.441Z,10.40
2023-04-25T07:55:41.219Z,10.30
2023-04-25T07:58:16.414Z,10.20
2023-04-25T08:00:47.864Z,10.20
2023-04-25T08:03:39.210Z,10.20
2023-04-25T08:06:15.378Z,10.20
2023-04-25T08:09:03.904Z,10.30
2023-04-25T08:11:39.350Z,10.30
2023-04-25T08:14:10.397Z,10.30
2023-04-25T08:16:40.658Z,10.40
2023-04-25T08:19:09.784Z,10.30
2023-04-25T08:21:40.936Z,10.40
2023-04-25T08:24:14.287Z,10.50
2023-04-25T08:26:43.777Z,10.50
2023-04-25T08:29:18.020Z,10.50
2023-04-25T08:31:47.800Z,10.60
2023-04-25T08:34:17.389Z,10.60
2023-04-25T08:36:52.014Z,10.70
2023-04-25T08:39:38.277Z,10.70
2023-04-25T08:42:30.041Z,10.70
2023-04-25T08:45:01.859Z,10.80
2023-04-25T08:47:36.628Z,10.90
2023-04-25T08:50:07.727Z,11.00
2023-04-25T08:52:40.125Z,11.00
2023-04-25T08:55:11.883Z,11.10
2023-04-25T08:57:43.864Z,11.10
2023-04-25T09:00:13.452Z,11.30
2023-04-25T09:02:45.125Z,11.50
2023-04-25T09:05:15.825Z,11.70
2023-04-25T09:07:49.825Z,11.80
2023-04-25T09:10:20.005Z,11.80
2023-04-25T09:13:05.724Z,11.90
2023-04-25T09:15:51.113Z,12.10
2023-04-25T09:18:39.401Z,12.30
2023-04-25T09:21:14.394Z,12.50
2023-04-25T09:23:49.856Z,12.60
2023-04-25T09:26:21.761Z,12.70
2023-04-25T09:29:06.551Z,12.80
2023-04-25T09:31:36.682Z,12.80
2023-04-25T09:34:07.639Z,12.90
2023-04-25T09:36:44.527Z,13.00
2023-04-25T09:39:36.100Z,13.10
2023-04-25T09:42:13.764Z,13.10
2023-04-25T09:44:45.963Z,13.20
2023-04-25T09:47:17.484Z,13.20
2023-04-25T09:49:47.516Z,13.20
2023-04-25T09:52:19.280Z,13.20
2023-04-25T09:54:59.544Z,13.20
2023-04-25T09:57:34.673Z,13.00
2023-04-25T10:00:05.963Z,13.00
2023-04-25T10:02:49.353Z,13.10
2023-04-25T10:05:38.760Z,13.20
2023-04-25T10:08:09.772Z,13.20
2023-04-25T10:10:43.010Z,13.20
2023-04-25T10:13:15.409Z,13.20
2023-04-25T10:15:45.753Z,13.10
2023-04-25T10:18:15.220Z,13.10
2023-04-25T10:20:44.253Z,13.10
2023-04-25T10:23:18.003Z,12.90
2023-04-25T10:25:48.821Z,12.90
2023-04-25T10:28:17.832Z,13.10
2023-04-25T10:31:10.346Z,13.20
2023-04-25T10:33:43.122Z,13.30
2023-04-25T10:36:14.062Z,13.30
2023-04-25T10:38:45.170Z,13.30
2023-04-25T10:41:16.521Z,13.40
2023-04-25T10:43:45.625Z,13.40
2023-04-25T10:46:21.974Z,13.40
2023-04-25T10:48:52.383Z,13.50
2023-04-25T10:51:24.104Z,13.40
2023-04-25T10:54:01.416Z,13.30
2023-04-25T10:56:33.455Z,13.20
2023-04-25T10:59:11.276Z,13.30
2023-04-25T11:01:42.552Z,13.30
2023-04-25T11:04:24.305Z,13.30
2023-04-25T11:07:13.123Z,13.30
2023-04-25T11:09:43.030Z,13.30
2023-04-25T11:12:14.228Z,13.40
2023-04-25T11:14:43.428Z,13.50
2023-04-25T11:17:12.868Z,13.60
2023-04-25T11:19:42.084Z,13.40
2023-04-25T11:22:12.906Z,13.30
2023-04-25T11:24:42.097Z,13.30
2023-04-25T11:27:12.620Z,13.20
2023-04-25T11:29:41.723Z,13.10
2023-04-25T11:32:11.372Z,13.10
2023-04-25T11:34:40.460Z,13.10
2023-04-25T11:37:09.803Z,13.00
2023-04-25T11:39:38.895Z,12.90
2023-04-25T11:42:09.239Z,13.00
2023-04-25T11:44:43.283Z,12.90
2023-04-25T11:47:12.331Z,13.00
2023-04-25T11:49:41.334Z,13.00
2023-04-25T11:52:10.776Z,13.00
2023-04-25T11:54:39.960Z,12.90
2023-04-25T11:57:09.021Z,12.90
2023-04-25T11:59:38.260Z,13.00
2023-04-25T12:02:08.694Z,13.00
2023-04-25T12:04:38.090Z,13.00
2023-04-25T12:07:12.156Z,13.00
2023-04-25T12:09:42.576Z,12.90
2023-04-25T12:12:12.596Z,12.90
2023-04-25T12:14:42.203Z,12.90
2023-04-25T12:17:12.824Z,13.00
2023-04-25T12:19:42.327Z,13.10
2023-04-25T12:22:23.230Z,13.00
2023-04-25T12:24:54.335Z,13.10
2023-04-25T12:27:23.380Z,13.10
2023-04-25T12:29:57.009Z,13.00
2023-04-25T12:32:28.326Z,13.00
2023-04-25T12:34:57.237Z,13.10
2023-04-25T12:37:26.191Z,13.10
2023-04-25T12:39:55.205Z,13.20
2023-04-25T12:42:24.199Z,13.20
2023-04-25T12:44:53.166Z,13.10
2023-04-25T12:47:22.220Z,13.10
2023-04-25T12:49:52.660Z,13.20
2023-04-25T12:52:21.875Z,13.20
2023-04-25T12:54:50.910Z,13.30
2023-04-25T12:57:19.934Z,13.20
2023-04-25T12:59:49.329Z,13.00
2023-04-25T13:02:18.343Z,12.80
2023-04-25T13:04:47.763Z,12.70
2023-04-25T13:07:18.210Z,12.60
2023-04-25T13:09:47.229Z,12.60
2023-04-25T13:12:16.673Z,12.60
2023-04-25T13:14:45.704Z,12.50
2023-04-25T13:17:14.722Z,12.40
2023-04-25T13:19:43.723Z,12.40
2023-04-25T13:22:12.745Z,12.40
2023-04-25T13:24:43.276Z,12.40
2023-04-25T13:27:12.295Z,12.40
2023-04-25T13:29:41.600Z,12.30
2023-04-25T13:32:11.830Z,12.30
2023-04-25T13:34:40.947Z,12.30
2023-04-25T13:37:10.003Z,12.30
2023-04-25T13:39:39.132Z,12.30
2023-04-25T13:42:09.505Z,12.30
2023-04-25T13:44:38.581Z,12.30
2023-04-25T13:47:07.802Z,12.30
2023-04-25T13:49:36.921Z,12.30
2023-04-25T13:52:06.480Z,12.40
2023-04-25T13:54:35.709Z,12.40
2023-04-25T13:57:05.003Z,12.40
2023-04-25T13:59:35.514Z,12.40
2023-04-25T14:02:04.882Z,12.40
2023-04-25T14:04:34.103Z,12.50
2023-04-25T14:07:04.000Z,12.50
2023-04-25T14:09:33.353Z,12.50
2023-04-25T14:12:03.252Z,12.50
2023-04-25T14:14:32.362Z,12.50
2023-04-25T14:17:02.781Z,12.50
2023-04-25T14:19:31.872Z,12.50
2023-04-25T14:22:00.892Z,12.50
2023-04-25T14:24:29.896Z,12.40
2023-04-25T14:26:58.960Z,12.40
2023-04-25T14:29:27.993Z,12.40
2023-04-25T14:31:58.588Z,12.40
2023-04-25T14:34:28.998Z,12.40
2023-04-25T14:36:58.111Z,12.40
2023-04-25T14:39:27.127Z,12.40
2023-04-25T14:41:57.202Z,12.40
2023-04-25T14:44:26.361Z,12.40
2023-04-25T14:46:55.499Z,12.50
2023-04-25T14:49:24.557Z,12.60
2023-04-25T14:51:55.348Z,12.60
2023-04-25T14:54:24.408Z,12.70
2023-04-25T14:56:53.475Z,12.70
2023-04-25T14:59:22.709Z,12.60
2023-04-25T15:01:52.969Z,12.50
2023-04-25T15:04:22.200Z,12.50
2023-04-25T15:06:51.292Z,12.50
2023-04-25T15:09:21.666Z,12.40
2023-04-25T15:11:50.689Z,12.30
2023-04-25T15:14:19.802Z,12.30
2023-04-25T15:16:48.909Z,12.30
2023-04-25T15:19:18.219Z,12.40
2023-04-25T15:21:47.353Z,12.40
2023-04-25T15:24:17.256Z,12.40
2023-04-25T15:26:47.687Z,12.40
2023-04-25T15:29:16.682Z,12.50
2023-04-25T15:31:46.090Z,12.60
2023-04-25T15:34:15.067Z,12.60
2023-04-25T15:36:44.217Z,12.60
2023-04-25T15:39:13.294Z,12.50
2023-04-25T15:41:42.329Z,12.50
2023-04-25T15:44:12.767Z,12.40
2023-04-25T15:46:41.943Z,12.50
2023-04-25T15:49:11.127Z,12.50
2023-04-25T15:51:40.395Z,12.50
2023-04-25T15:54:09.733Z,12.50
2023-04-25T15:56:38.938Z,12.50
2023-04-25T15:59:08.513Z,12.50
2023-04-25T16:01:40.423Z,12.50
2023-04-25T16:04:09.631Z,12.50
2023-04-25T16:06:38.897Z,12.60
2023-04-25T16:09:08.017Z,12.60
2023-04-25T16:11:37.068Z,12.60
2023-04-25T16:14:06.212Z,12.60
2023-04-25T16:16:35.261Z,12.60
2023-04-25T16:19:06.069Z,12.60
2023-04-25T16:21:35.159Z,12.60
2023-04-25T16:24:04.426Z,12.50
2023-04-25T16:26:33.419Z,12.60
2023-04-25T16:29:04.507Z,12.50
2023-04-25T16:31:36.419Z,12.50
2023-04-25T16:34:06.909Z,12.40
2023-04-25T16:36:35.952Z,12.40
2023-04-25T16:39:05.070Z,12.40
2023-04-25T16:41:34.256Z,12.30
2023-04-25T16:44:03.289Z,12.30
2023-04-25T16:46:32.392Z,12.30
2023-04-25T16:49:01.450Z,12.30
2023-04-25T16:51:32.643Z,12.40
2023-04-25T16:54:01.809Z,12.40
2023-04-25T16:56:30.825Z,12.30
2023-04-25T16:58:59.945Z,12.30
2023-04-25T17:01:29.237Z,12.30
2023-04-25T17:03:58.508Z,12.30
2023-04-25T17:06:27.671Z,12.20
2023-04-25T17:08:58.119Z,12.20
2023-04-25T17:11:27.191Z,12.20
2023-04-25T17:13:56.320Z,12.20
2023-04-25T17:16:35.224Z,12.20
2023-04-25T17:19:05.107Z,12.20
2023-04-25T17:21:34.137Z,12.10
2023-04-25T17:24:09.599Z,12.10
2023-04-25T17:26:38.801Z,12.10
2023-04-25T17:29:08.303Z,12.10
2023-04-25T17:31:37.518Z,12.10
2023-04-25T17:34:06.561Z,12.10
2023-04-25T17:36:35.680Z,12.00
2023-04-25T17:39:08.456Z,12.00
2023-04-25T17:41:38.328Z,12.00
2023-04-25T17:44:07.494Z,12.00
2023-04-25T17:46:36.595Z,11.90
2023-04-25T17:49:06.363Z,12.00
2023-04-25T17:51:36.319Z,11.90
2023-04-25T17:54:06.994Z,11.90
2023-04-25T17:56:38.657Z,11.90
2023-04-25T17:59:07.780Z,11.90
2023-04-25T18:01:38.123Z,11.90
2023-04-25T18:04:07.427Z,11.90
2023-04-25T18:06:36.945Z,12.00
2023-04-25T18:09:16.051Z,11.90
2023-04-25T18:11:45.694Z,11.90
2023-04-25T18:14:16.913Z,12.00
2023-04-25T18:16:46.873Z,11.90
2023-04-25T18:19:21.195Z,11.90
2023-04-25T18:21:51.401Z,11.80
2023-04-25T18:24:22.676Z,11.80
2023-04-25T18:26:52.220Z,11.70
2023-04-25T18:29:32.160Z,11.70
2023-04-25T18:32:04.619Z,11.70
2023-04-25T18:34:34.338Z,11.70
2023-04-25T18:37:03.510Z,11.60
2023-04-25T18:39:33.970Z,11.60
2023-04-25T18:42:06.651Z,11.60
2023-04-25T18:44:40.018Z,11.50
2023-04-25T18:47:10.299Z,11.50
2023-04-25T18:49:39.539Z,11.60
2023-04-25T18:52:10.822Z,11.60
2023-04-25T18:54:41.060Z,11.50
2023-04-25T18:57:11.671Z,11.50
2023-04-25T18:59:40.700Z,11.50
2023-04-25T19:02:10.610Z,11.50
2023-04-25T19:04:39.871Z,11.50
2023-04-25T19:07:08.964Z,11.50
2023-04-25T19:09:38.016Z,11.50
2023-04-25T19:12:08.734Z,11.50
2023-04-25T19:14:37.776Z,11.40
2023-04-25T19:17:06.988Z,11.40
2023-04-25T19:19:36.128Z,11.40
2023-04-25T19:22:05.214Z,11.40
2023-04-25T19:24:34.650Z,11.40
2023-04-25T19:27:04.096Z,11.40
2023-04-25T19:29:34.628Z,11.40
2023-04-25T19:32:03.957Z,11.40
2023-04-25T19:34:33.032Z,11.40
2023-04-25T19:37:02.364Z,11.40
2023-04-25T19:39:31.436Z,11.30
2023-04-25T19:42:03.061Z,11.30
2023-04-25T19:44:32.090Z,11.30
2023-04-25T19:47:02.658Z,11.30
2023-04-25T19:49:32.270Z,11.30
2023-04-25T19:52:01.396Z,11.30
2023-04-25T19:54:31.049Z,11.30
2023-04-25T19:57:00.270Z,11.30
2023-04-25T19:59:29.378Z,11.30
2023-04-25T20:01:59.939Z,11.20
2023-04-25T20:04:30.718Z,11.20
2023-04-25T20:07:00.123Z,11.20
2023-04-25T20:09:29.317Z,11.20
2023-04-25T20:11:58.713Z,11.20
2023-04-25T20:14:27.819Z,11.20
2023-04-25T20:16:56.930Z,11.20
2023-04-25T20:19:26.074Z,11.20
2023-04-25T20:21:56.900Z,11.20
2023-04-25T20:24:26.279Z,11.10
2023-04-25T20:26:56.406Z,11.20
2023-04-25T20:29:26.872Z,11.20
2023-04-25T20:31:56.950Z,11.10
2023-04-25T20:34:26.104Z,11.00
2023-04-25T20:36:57.823Z,11.10
2023-04-25T20:39:26.991Z,11.10
2023-04-25T20:41:57.023Z,11.00
2023-04-25T20:44:26.116Z,11.00
2023-04-25T20:46:55.255Z,11.00
2023-04-25T20:49:24.278Z,11.00
2023-04-25T20:51:53.800Z,11.00
2023-04-25T20:54:27.017Z,11.00
2023-04-25T20:56:56.079Z,11.00
2023-04-25T20:59:25.503Z,11.00
2023-04-25T21:01:55.292Z,11.00
2023-04-25T21:04:24.668Z,11.10
2023-04-25T21:06:53.708Z,11.00
2023-04-25T21:09:24.053Z,11.00
2023-04-25T21:11:53.039Z,11.00
2023-04-25T21:14:22.802Z,11.00
2023-04-25T21:16:51.803Z,11.00
2023-04-25T21:19:20.891Z,11.00
2023-04-25T21:21:49.908Z,11.00
2023-04-25T21:24:18.935Z,11.00
2023-04-25T21:26:49.561Z,11.00
2023-04-25T21:29:18.668Z,11.00
2023-04-25T21:31:48.228Z,11.00
2023-04-25T21:34:17.440Z,11.00
2023-04-25T21:36:46.450Z,11.00
2023-04-25T21:39:16.165Z,11.00
2023-04-25T21:41:45.223Z,11.00
2023-04-25T21:44:15.936Z,11.00
2023-04-25T21:46:45.061Z,11.00
2023-04-25T21:49:14.603Z,11.10
2023-04-25T21:51:43.790Z,11.10
2023-04-25T21:54:12.812Z,11.10
2023-04-25T21:56:42.257Z,11.10
2023-04-25T21:59:11.908Z,11.00
2023-04-25T22:01:42.392Z,11.00
2023-04-25T22:04:11.681Z,11.00
2023-04-25T22:06:40.854Z,11.00
2023-04-25T22:09:09.949Z,11.00
2023-04-25T22:11:41.002Z,11.00
2023-04-25T22:14:10.729Z,11.00
2023-04-25T22:16:41.244Z,11.00
2023-04-25T22:19:10.298Z,11.00
2023-04-25T22:21:39.803Z,10.90
2023-04-25T22:24:09.470Z,10.90
2023-04-25T22:26:38.532Z,10.90
2023-04-25T22:29:07.634Z,11.00
2023-04-25T22:31:36.681Z,11.00
2023-04-25T22:34:07.606Z,10.90
2023-04-25T22:36:36.614Z,10.90
2023-04-25T22:39:05.865Z,10.90
2023-04-25T22:41:34.838Z,10.90
2023-04-25T22:44:03.856Z,10.90
2023-04-25T22:46:32.929Z,10.90
2023-04-25T22:49:02.732Z,10.80
2023-04-25T22:51:33.263Z,10.80
2023-04-25T22:54:03.292Z,10.80
2023-04-25T22:56:32.710Z,10.80
2023-04-25T22:59:01.953Z,10.80
2023-04-25T23:01:31.695Z,10.80
2023-04-25T23:04:01.291Z,10.80
2023-04-25T23:06:30.560Z,10.80
2023-04-25T23:09:01.101Z,10.90
2023-04-25T23:11:30.287Z,10.90
2023-04-25T23:13:59.847Z,10.90
2023-04-25T23:16:28.961Z,10.90
2023-04-25T23:18:58.011Z,10.90
2023-04-25T23:21:27.027Z,10.80
2023-04-25T23:23:56.738Z,10.80
2023-04-25T23:26:27.194Z,10.80
2023-04-25T23:28:56.208Z,10.80
2023-04-25T23:31:25.208Z,10.80
2023-04-25T23:33:54.466Z,10.80
2023-04-25T23:36:23.917Z,10.80
2023-04-25T23:38:53.222Z,10.70
2023-04-25T23:41:22.745Z,10.70
2023-04-25T23:43:53.226Z,10.70
2023-04-25T23:46:22.578Z,10.70
2023-04-25T23:48:51.823Z,10.70
2023-04-25T23:51:21.050Z,10.70
2023-04-25T23:53:50.083Z,10.70
2023-04-25T23:56:19.123Z,10.70
2023-04-25T23:58:48.175Z,10.70
